Terminal Aerodrome Forecast
Issued by NWS Cleveland, OH

Home | Current Version | Previous Version | Graphics & Text | Print | Product List | Glossary On
Versions: 1 2 3 4 5 6 7 8 9 10 11 12 13 14 15 16 17
000
FTUS41 KCLE 161120
TAFYNG
TAF
KYNG 161120Z 1612/1712 26015G25KT 5SM -SHRA SCT012 OVC020
      TEMPO 1613/1617 2SM -SHRA BKN012
     FM162000 30018G28KT P6SM OVC020=

USA.gov is the U.S. government's official web portal to all federal, state and local government web resources and services.